createdAt,value
2023-01-29T00:00:25.569Z,-1.32
2023-01-29T00:01:25.530Z,-1.33
2023-01-29T00:02:25.531Z,-1.25
2023-01-29T00:03:25.467Z,-1.22
2023-01-29T00:04:25.386Z,-1.24
2023-01-29T00:05:28.217Z,-1.30
2023-01-29T00:06:25.267Z,-1.29
2023-01-29T00:07:25.217Z,-1.27
2023-01-29T00:08:25.163Z,-1.27
2023-01-29T00:09:25.114Z,-1.25
2023-01-29T00:10:25.072Z,-1.29
2023-01-29T00:11:25.022Z,-1.27
2023-01-29T00:12:24.963Z,-1.32
2023-01-29T00:13:24.910Z,-1.33
2023-01-29T00:14:24.855Z,-1.22
2023-01-29T00:15:24.818Z,-1.30
2023-01-29T00:16:24.759Z,-1.33
2023-01-29T00:17:24.706Z,-1.32
2023-01-29T00:18:24.664Z,-1.33
2023-01-29T00:19:24.609Z,-1.27
2023-01-29T00:20:24.578Z,-1.33
2023-01-29T00:21:24.506Z,-1.38
2023-01-29T00:22:24.465Z,-1.32
2023-01-29T00:23:24.402Z,-1.30
2023-01-29T00:24:24.421Z,-1.33
2023-01-29T00:25:24.300Z,-1.35
2023-01-29T00:26:24.246Z,-1.30
2023-01-29T00:27:24.199Z,-1.33
2023-01-29T00:28:24.156Z,-1.35
2023-01-29T00:29:24.096Z,-1.35
2023-01-29T00:30:24.049Z,-1.33
2023-01-29T00:31:24.129Z,-1.35
2023-01-29T00:32:24.043Z,-1.32
2023-01-29T00:33:23.929Z,-1.38
2023-01-29T00:34:23.841Z,-1.33
2023-01-29T00:35:23.791Z,-1.29
2023-01-29T00:36:23.757Z,-1.32
2023-01-29T00:37:23.698Z,-1.30
2023-01-29T00:38:23.638Z,-1.32
2023-01-29T00:39:29.229Z,-1.22
2023-01-29T00:40:23.537Z,-1.36
2023-01-29T00:41:23.488Z,-1.32
2023-01-29T00:42:23.434Z,-1.21
2023-01-29T00:43:23.387Z,-1.32
2023-01-29T00:44:23.334Z,-1.32
2023-01-29T00:45:23.285Z,-1.36
2023-01-29T00:46:23.266Z,-1.19
2023-01-29T00:47:23.183Z,-1.29
2023-01-29T00:48:23.131Z,-1.25
2023-01-29T00:49:23.084Z,-1.32
2023-01-29T00:50:23.031Z,-1.39
2023-01-29T00:51:22.995Z,-1.22
2023-01-29T00:52:22.945Z,-1.38
2023-01-29T00:53:22.884Z,-1.40
2023-01-29T00:54:22.826Z,-1.40
2023-01-29T00:55:22.779Z,-1.32
2023-01-29T00:56:22.724Z,-1.42
2023-01-29T00:57:22.676Z,-1.38
2023-01-29T00:58:22.621Z,-1.35
2023-01-29T00:59:22.577Z,-1.30
2023-01-29T17:39:56.210Z,3.36
2023-01-29T17:40:56.154Z,3.27
2023-01-29T17:41:56.111Z,3.26
2023-01-29T17:42:56.054Z,3.33
2023-01-29T17:43:55.984Z,3.36
2023-01-29T17:44:55.938Z,3.30
2023-01-29T17:45:55.960Z,3.34
2023-01-29T17:46:55.833Z,3.27
2023-01-29T17:47:55.776Z,3.22
2023-01-29T17:48:55.728Z,3.40
2023-01-29T17:49:55.678Z,3.43
2023-01-29T17:50:55.628Z,3.43
2023-01-29T17:51:55.572Z,3.37
2023-01-29T17:52:55.527Z,3.40
2023-01-29T17:53:55.473Z,3.43
2023-01-29T17:54:55.423Z,3.40
2023-01-29T17:55:55.372Z,3.46
2023-01-29T17:56:55.329Z,3.41
2023-01-29T17:57:55.293Z,3.41
2023-01-29T17:58:55.224Z,3.52
2023-01-29T17:59:55.172Z,3.48
2023-01-29T18:00:55.127Z,3.49
2023-01-29T18:01:55.129Z,3.46
2023-01-29T18:02:55.028Z,3.41
2023-01-29T18:03:55.004Z,3.50
2023-01-29T18:04:54.932Z,3.56
2023-01-29T18:05:54.898Z,3.52
2023-01-29T18:06:54.837Z,3.55
2023-01-29T18:07:54.784Z,3.56
2023-01-29T18:08:54.731Z,3.50
2023-01-29T18:09:54.732Z,3.49
2023-01-29T18:10:54.639Z,3.53
2023-01-29T18:11:54.585Z,3.49
2023-01-29T18:12:54.540Z,3.61
2023-01-29T18:13:54.486Z,3.56
2023-01-29T18:14:54.443Z,3.58
2023-01-29T18:15:54.452Z,3.55
2023-01-29T18:16:56.038Z,3.56
2023-01-29T18:17:54.298Z,3.53
2023-01-29T18:18:54.255Z,3.63
2023-01-29T18:19:54.231Z,3.61
2023-01-29T18:20:54.148Z,3.55
2023-01-29T18:21:54.097Z,3.53
2023-01-29T18:22:54.053Z,3.63
2023-01-29T18:23:54.024Z,3.55
2023-01-29T18:24:53.954Z,3.55
2023-01-29T18:25:53.915Z,3.59
2023-01-29T18:26:53.873Z,3.64
2023-01-29T18:27:53.808Z,3.66
2023-01-29T18:28:53.765Z,3.63
2023-01-29T18:29:53.763Z,3.67
2023-01-29T18:30:53.828Z,3.63
2023-01-29T18:31:53.642Z,3.66
2023-01-29T18:32:53.569Z,3.63
2023-01-29T18:33:53.533Z,3.66
2023-01-29T18:34:53.473Z,3.73
2023-01-29T18:35:53.425Z,3.70
2023-01-29T18:36:53.376Z,3.73
2023-01-29T18:37:53.324Z,3.82
2023-01-29T18:38:53.282Z,3.73
2023-01-29T18:39:53.309Z,3.76
2023-01-29T18:40:53.189Z,3.73
2023-01-29T18:41:53.139Z,3.76
2023-01-29T18:42:53.093Z,3.71
2023-01-29T18:43:53.045Z,3.78
2023-01-29T18:44:52.999Z,3.71
2023-01-29T18:45:53.023Z,3.73
2023-01-29T18:46:52.895Z,3.77
2023-01-29T18:47:52.845Z,3.71
2023-01-29T18:48:52.821Z,3.71
2023-01-29T18:51:52.693Z,3.76
2023-01-29T18:52:52.612Z,3.67
2023-01-29T18:53:52.569Z,3.73
2023-01-29T18:54:52.515Z,3.67
2023-01-29T18:55:52.460Z,3.76
2023-01-29T18:57:12.981Z,3.78
2023-01-29T18:58:27.973Z,3.78
2023-01-29T18:58:55.815Z,3.67
2023-01-29T18:59:52.279Z,3.77
2023-01-29T19:00:52.245Z,3.73
2023-01-29T19:01:52.182Z,3.73
2023-01-29T19:02:52.128Z,3.81
2023-01-29T19:03:52.090Z,3.76
2023-01-29T19:04:52.032Z,3.70
2023-01-29T19:05:51.988Z,3.74
2023-01-29T19:06:51.940Z,3.73
2023-01-29T19:07:51.885Z,3.81
2023-01-29T19:08:51.837Z,3.74
2023-01-29T19:09:51.880Z,3.67
2023-01-29T19:10:51.737Z,3.70
2023-01-29T19:11:51.688Z,3.77
2023-01-29T19:12:51.647Z,3.77
2023-01-29T19:13:51.597Z,3.74
2023-01-29T19:14:51.547Z,3.73
2023-01-29T19:15:51.500Z,3.73
2023-01-29T19:16:51.541Z,3.74
2023-01-29T19:17:51.402Z,3.73
2023-01-29T19:18:51.353Z,3.74
2023-01-29T19:19:51.305Z,3.76
2023-01-29T19:20:51.332Z,3.77
2023-01-29T19:21:51.211Z,3.81
2023-01-29T19:22:51.163Z,3.82
2023-01-29T19:23:51.111Z,3.77
2023-01-29T19:24:51.068Z,3.84
2023-01-29T19:25:51.014Z,3.84
2023-01-29T19:26:51.031Z,3.84
2023-01-29T19:27:50.962Z,3.84
2023-01-29T19:28:50.936Z,3.84
2023-01-29T19:29:50.823Z,3.82
2023-01-29T19:30:50.863Z,3.82
2023-01-29T19:31:50.727Z,3.84
2023-01-29T19:32:50.685Z,3.85
2023-01-29T19:33:50.631Z,3.82
2023-01-29T19:34:50.586Z,3.82
2023-01-29T19:35:50.534Z,3.89
2023-01-29T19:36:50.486Z,3.85
2023-01-29T19:37:50.443Z,3.85
2023-01-29T19:38:50.395Z,3.85
2023-01-29T19:39:50.346Z,3.86
2023-01-29T19:40:50.296Z,3.84
2023-01-29T19:41:50.254Z,3.85
2023-01-29T19:42:50.198Z,3.88
2023-01-29T19:43:50.172Z,3.86
2023-01-29T19:44:50.177Z,3.86
2023-01-29T19:45:50.729Z,3.84
2023-01-29T19:46:50.037Z,3.86
2023-01-29T19:47:50.021Z,3.91
2023-01-29T19:48:49.911Z,3.88
2023-01-29T19:49:49.872Z,3.92
2023-01-29T19:50:49.816Z,3.86
2023-01-29T19:51:49.781Z,3.89
2023-01-29T19:52:51.691Z,3.86
2023-01-29T19:53:49.668Z,3.95
2023-01-29T19:54:49.623Z,3.89
2023-01-29T19:55:49.572Z,3.92
2023-01-29T19:56:49.529Z,3.85
2023-01-29T19:57:49.478Z,3.86
2023-01-29T19:58:49.429Z,3.92
2023-01-29T19:59:49.382Z,3.95
2023-01-29T20:00:49.352Z,3.85
2023-01-29T20:01:49.322Z,3.89
2023-01-29T20:02:49.268Z,3.95
2023-01-29T20:03:49.242Z,3.92
2023-01-29T20:04:49.141Z,3.92
2023-01-29T20:05:49.094Z,3.86
2023-01-29T20:06:49.052Z,3.92
2023-01-29T20:07:48.997Z,3.96
2023-01-29T20:08:48.957Z,3.99
2023-01-29T20:09:49.653Z,3.88
2023-01-29T20:10:48.852Z,3.94
2023-01-29T20:11:48.803Z,3.92
2023-01-29T20:12:48.765Z,3.88
2023-01-29T20:13:48.721Z,3.92
2023-01-29T20:14:48.660Z,3.91
2023-01-29T20:15:48.617Z,3.85
2023-01-29T20:16:48.576Z,3.89
2023-01-29T20:17:48.514Z,3.88
2023-01-29T20:18:48.480Z,4.02
2023-01-29T20:19:48.419Z,3.95
2023-01-29T20:20:48.414Z,3.91
2023-01-29T20:21:48.323Z,3.99
2023-01-29T20:22:48.542Z,3.94
2023-01-29T20:23:48.228Z,3.99
2023-01-29T20:24:48.181Z,3.99
2023-01-29T20:25:48.129Z,3.92
2023-01-29T20:26:48.153Z,3.95
2023-01-29T20:27:48.034Z,3.92
2023-01-29T20:28:47.986Z,3.92
2023-01-29T20:29:47.940Z,3.92
2023-01-29T20:30:47.930Z,3.89
2023-01-29T20:31:47.938Z,3.91
2023-01-29T20:32:47.796Z,3.91
2023-01-29T20:33:47.744Z,3.85
2023-01-29T20:34:47.708Z,3.89
2023-01-29T20:35:47.649Z,3.91
2023-01-29T20:36:47.614Z,3.88
2023-01-29T20:37:47.552Z,3.91
2023-01-29T20:38:47.511Z,3.89
2023-01-29T20:39:47.463Z,3.88
2023-01-29T20:40:47.410Z,3.88
2023-01-29T20:41:47.400Z,3.86
2023-01-29T20:42:47.315Z,3.88
2023-01-29T20:43:47.479Z,3.86
2023-01-29T20:44:47.220Z,3.81
2023-01-29T20:45:47.208Z,3.85
2023-01-29T20:46:47.125Z,3.91
2023-01-29T20:47:47.088Z,3.89
2023-01-29T20:48:47.024Z,3.88
2023-01-29T20:49:46.973Z,3.88
2023-01-29T20:50:46.934Z,3.85
2023-01-29T20:51:46.885Z,3.86
2023-01-29T20:52:46.837Z,3.85
2023-01-29T20:53:46.824Z,3.85
2023-01-29T20:54:46.740Z,3.89
2023-01-29T20:55:46.690Z,3.86
2023-01-29T20:56:47.272Z,3.85
2023-01-29T20:58:05.997Z,3.88
2023-01-29T20:58:46.731Z,3.89
2023-01-29T20:59:46.518Z,3.88
2023-01-29T21:00:46.464Z,3.88
2023-01-29T21:01:46.472Z,3.88
2023-01-29T21:02:46.348Z,3.92
2023-01-29T21:03:46.325Z,3.85
2023-01-29T21:04:46.255Z,3.92
2023-01-29T21:05:46.205Z,3.94
2023-01-29T21:06:46.163Z,3.92
2023-01-29T21:07:46.110Z,3.94
2023-01-29T21:08:46.061Z,3.91
2023-01-29T21:09:46.021Z,4.02
2023-01-29T21:10:45.963Z,3.99
2023-01-29T21:11:45.916Z,4.00
2023-01-29T21:12:45.867Z,3.96
2023-01-29T21:13:45.817Z,3.96
2023-01-29T21:14:45.779Z,3.91
2023-01-29T21:15:45.722Z,3.89
2023-01-29T21:16:45.716Z,4.02
2023-01-29T21:17:45.623Z,4.06
2023-01-29T21:18:45.578Z,4.04
2023-01-29T21:19:45.532Z,3.94
2023-01-29T21:20:45.483Z,4.04
2023-01-29T21:21:45.444Z,4.07
2023-01-29T21:22:45.387Z,4.03
2023-01-29T21:23:45.335Z,4.07
2023-01-29T21:24:45.289Z,4.04
2023-01-29T21:25:45.240Z,4.09
2023-01-29T21:26:45.237Z,4.03
2023-01-29T21:27:45.140Z,4.09
2023-01-29T21:28:45.095Z,4.09
2023-01-29T21:29:45.051Z,4.13
2023-01-29T21:30:45.034Z,4.10
2023-01-29T21:31:44.974Z,4.09
2023-01-29T21:32:44.907Z,4.18
2023-01-29T21:33:44.902Z,4.09
2023-01-29T21:34:44.805Z,4.10
2023-01-29T21:35:44.757Z,4.12
2023-01-29T21:36:44.715Z,4.18
2023-01-29T21:37:44.662Z,4.16
2023-01-29T21:38:44.632Z,4.20
2023-01-29T21:39:44.569Z,4.10
2023-01-29T21:40:44.520Z,4.18
2023-01-29T21:41:44.466Z,4.12
2023-01-29T21:42:44.425Z,4.12
2023-01-29T21:43:44.372Z,4.12
2023-01-29T21:44:44.326Z,4.21
2023-01-29T21:45:44.294Z,4.21
2023-01-29T21:46:44.228Z,4.13
2023-01-29T21:47:44.182Z,4.18
2023-01-29T21:48:44.145Z,4.24
2023-01-29T21:49:44.105Z,4.18
2023-01-29T21:50:44.039Z,4.21
2023-01-29T21:51:43.989Z,4.28
2023-01-29T21:52:43.956Z,4.24
2023-01-29T21:53:43.889Z,4.22
2023-01-29T21:54:43.868Z,4.21
2023-01-29T21:55:43.801Z,4.21
2023-01-29T21:56:43.747Z,4.30
2023-01-29T21:57:43.698Z,4.32
2023-01-29T21:58:43.650Z,4.32
2023-01-29T21:59:43.610Z,4.34
2023-01-29T22:00:43.561Z,4.30
2023-01-29T22:01:43.515Z,4.32
2023-01-29T22:02:43.850Z,4.38
2023-01-29T22:03:45.515Z,4.38
2023-01-29T22:04:43.361Z,4.39
2023-01-29T22:05:43.319Z,4.38
2023-01-29T22:06:43.277Z,4.38
2023-01-29T22:07:43.217Z,4.36
2023-01-29T22:08:43.176Z,4.42
2023-01-29T22:09:43.129Z,4.34
2023-01-29T22:10:43.071Z,4.38
2023-01-29T22:11:43.024Z,4.39
2023-01-29T22:12:42.977Z,4.39
2023-01-29T22:13:42.926Z,4.39
2023-01-29T22:14:42.883Z,4.46
2023-01-29T22:15:42.832Z,4.38
2023-01-29T22:16:42.807Z,4.40
2023-01-29T22:17:42.766Z,4.42
2023-01-29T22:18:42.686Z,4.40
2023-01-29T22:19:42.650Z,4.39
2023-01-29T22:20:42.593Z,4.43
2023-01-29T22:21:42.543Z,4.38
2023-01-29T22:22:42.504Z,4.46
2023-01-29T22:23:42.454Z,4.39
2023-01-29T22:24:42.402Z,4.40
2023-01-29T22:25:42.357Z,4.49
2023-01-29T22:26:42.397Z,4.40
2023-01-29T22:27:42.255Z,4.45
2023-01-29T22:28:42.215Z,4.42
2023-01-29T22:29:42.163Z,4.50
2023-01-29T22:30:42.152Z,4.49
2023-01-29T22:31:42.067Z,4.53
2023-01-29T22:32:42.060Z,4.57
2023-01-29T22:33:41.969Z,4.56
2023-01-29T22:34:41.928Z,4.43
2023-01-29T22:35:41.869Z,4.48
2023-01-29T22:36:41.820Z,4.48
2023-01-29T22:37:41.772Z,4.57
2023-01-29T22:38:41.722Z,4.48
2023-01-29T22:39:41.676Z,4.50
2023-01-29T22:40:41.628Z,4.57
2023-01-29T22:41:41.583Z,4.60
2023-01-29T22:42:41.538Z,4.53
2023-01-29T22:43:41.483Z,4.52
2023-01-29T22:44:41.433Z,4.56
2023-01-29T22:45:41.390Z,4.53
2023-01-29T22:46:41.374Z,4.56
2023-01-29T22:47:41.291Z,4.57
2023-01-29T22:48:41.258Z,4.56
2023-01-29T22:49:41.196Z,4.56
2023-01-29T22:50:41.146Z,4.57
2023-01-29T22:51:41.102Z,4.57
2023-01-29T22:52:41.051Z,4.57
2023-01-29T22:53:41.005Z,4.50
2023-01-29T22:54:40.960Z,4.57
2023-01-29T22:55:40.924Z,4.56
2023-01-29T22:56:40.861Z,4.52
2023-01-29T22:57:40.834Z,4.66
2023-01-29T22:58:40.769Z,4.61
2023-01-29T22:59:40.721Z,4.63
2023-01-29T23:00:40.670Z,4.66
2023-01-29T23:01:40.663Z,4.66
2023-01-29T23:02:40.581Z,4.63
2023-01-29T23:03:40.536Z,4.68
2023-01-29T23:04:40.515Z,4.66
2023-01-29T23:05:40.428Z,4.70
2023-01-29T23:06:40.379Z,4.66
2023-01-29T23:07:40.332Z,4.70
2023-01-29T23:08:40.285Z,4.63
2023-01-29T23:09:40.246Z,4.67
2023-01-29T23:10:40.220Z,4.67
2023-01-29T23:11:40.139Z,4.67
2023-01-29T23:12:40.105Z,4.63
2023-01-29T23:13:40.042Z,4.70
2023-01-29T23:14:40.064Z,4.63
2023-01-29T23:15:40.027Z,4.67
2023-01-29T23:16:39.901Z,4.67
2023-01-29T23:17:40.071Z,4.64
2023-01-29T23:18:39.800Z,4.71
2023-01-29T23:19:39.757Z,4.76
2023-01-29T23:20:39.714Z,4.64
2023-01-29T23:21:39.699Z,4.70
2023-01-29T23:22:39.661Z,4.76
2023-01-29T23:23:39.620Z,4.67
2023-01-29T23:24:39.743Z,4.75
2023-01-29T23:25:39.467Z,4.67
2023-01-29T23:26:39.449Z,4.82
2023-01-29T23:27:39.370Z,4.74
2023-01-29T23:28:39.323Z,4.67
2023-01-29T23:29:39.277Z,4.71
2023-01-29T23:30:39.237Z,4.67
2023-01-29T23:31:39.216Z,4.75
2023-01-29T23:32:39.134Z,4.79
2023-01-29T23:33:39.087Z,4.63
2023-01-29T23:34:39.044Z,4.71
